This is the latest recevied weather packets stored in our database for station/object SQ9NFI-4. If no packets are shown the sender has not sent any weather packets the latest 10 day(s).
| Time | Temp. | Humidity | Pressure | Rain* | Wind** | Luminosity | Snow |
|---|---|---|---|---|---|---|---|
| 1777979677 | 28.89° C | 19% | 1009.1 hPa | 0 mm | - | 589 W/m² | - |
| 1777979377 | 29.44° C | 22% | 1009.5 hPa | 0 mm | - | 745 W/m² | - |
| 1777979077 | 28.33° C | 22% | 1009.5 hPa | 0 mm | - | 754 W/m² | - |
| 1777978777 | 28.33° C | 23% | 1009.5 hPa | 0 mm | - | 626 W/m² | - |
| 1777978477 | 28.33° C | 21% | 1009.5 hPa | 0 mm | - | 631 W/m² | - |
| 1777978177 | 27.78° C | 21% | 1009.5 hPa | 0 mm | - | 631 W/m² | - |
| 1777977877 | 27.78° C | 21% | 1009.5 hPa | 0 mm | - | 574 W/m² | - |
| 1777977577 | 27.78° C | 21% | 1009.5 hPa | 0 mm | - | 640 W/m² | - |
| 1777977277 | 27.22° C | 21% | 1009.5 hPa | 0 mm | - | 663 W/m² | - |
| 1777976977 | 27.78° C | 23% | 1009.5 hPa | 0 mm | - | 705 W/m² | - |
| 1777976677 | 27.78° C | 21% | 1009.5 hPa | 0 mm | - | 751 W/m² | - |
| 1777976377 | 27.22° C | 22% | 1009.5 hPa | 0 mm | - | 688 W/m² | - |
| 1777976077 | 27.78° C | 22% | 1009.5 hPa | 0 mm | - | 671 W/m² | - |
| 1777975777 | 27.78° C | 24% | 1009.8 hPa | 0 mm | - | 623 W/m² | - |
| 1777975477 | 27.22° C | 23% | 1009.8 hPa | 0 mm | - | 643 W/m² | - |
| 1777975177 | 27.78° C | 24% | 1009.8 hPa | 0 mm | - | 728 W/m² | - |
| 1777974877 | 26.67° C | 23% | 1009.8 hPa | 0 mm | - | 691 W/m² | - |
| 1777974577 | 27.78° C | 25% | 1009.8 hPa | 0 mm | - | 685 W/m² | - |
| 1777974277 | 26.67° C | 23% | 1010.5 hPa | 0 mm | - | 705 W/m² | - |
| 1777973977 | 27.22° C | 24% | 1010.5 hPa | 0 mm | - | 702 W/m² | - |
| 1777973677 | 26.67° C | 23% | 1010.8 hPa | 0 mm | - | 714 W/m² | - |
| 1777973377 | 26.67° C | 24% | 1010.8 hPa | 0 mm | - | 722 W/m² | - |
| 1777973077 | 26.67° C | 26% | 1010.8 hPa | 0 mm | - | 663 W/m² | - |
| 1777972839 | 25.56° C | 24% | 1010.8 hPa | 0 mm | - | 482 W/m² | - |
| 1777972539 | 26.11° C | 25% | 1010.8 hPa | 0 mm | - | 648 W/m² | - |
* Rain latest hour (hover to see other rain measurements)
** Current wind speed in m/s (hover to see current wind gust speed)